sensor_id;sensor_type;location;lat;lon;timestamp;P1;durP1;ratioP1;P2;durP2;ratioP2
16401;SDS011;8310;44.626;11.176;2022-11-02T00:00:54;22.52;;;15.43;;
16401;SDS011;8310;44.626;11.176;2022-11-02T00:03:23;18.58;;;14.90;;
16401;SDS011;8310;44.626;11.176;2022-11-02T00:05:50;17.45;;;14.98;;
16401;SDS011;8310;44.626;11.176;2022-11-02T00:08:18;27.88;;;16.30;;
16401;SDS011;8310;44.626;11.176;2022-11-02T00:10:46;20.45;;;15.55;;
16401;SDS011;8310;44.626;11.176;2022-11-02T00:13:13;20.13;;;15.63;;
16401;SDS011;8310;44.626;11.176;2022-11-02T00:15:41;23.17;;;16.30;;
16401;SDS011;8310;44.626;11.176;2022-11-02T00:18:10;22.05;;;17.65;;
16401;SDS011;8310;44.626;11.176;2022-11-02T00:20:40;22.60;;;15.85;;
16401;SDS011;8310;44.626;11.176;2022-11-02T00:23:09;22.20;;;15.82;;
16401;SDS011;8310;44.626;11.176;2022-11-02T00:25:38;20.45;;;16.35;;
16401;SDS011;8310;44.626;11.176;2022-11-02T00:28:07;21.77;;;16.83;;
16401;SDS011;8310;44.626;11.176;2022-11-02T00:30:36;23.65;;;18.88;;
16401;SDS011;8310;44.626;11.176;2022-11-02T00:33:04;23.77;;;18.17;;
16401;SDS011;8310;44.626;11.176;2022-11-02T00:35:33;20.17;;;17.48;;
16401;SDS011;8310;44.626;11.176;2022-11-02T00:38:01;24.60;;;18.63;;
16401;SDS011;8310;44.626;11.176;2022-11-02T00:40:29;22.55;;;17.45;;
16401;SDS011;8310;44.626;11.176;2022-11-02T00:42:57;23.10;;;18.85;;
16401;SDS011;8310;44.626;11.176;2022-11-02T00:45:24;24.48;;;18.77;;
16401;SDS011;8310;44.626;11.176;2022-11-02T00:47:52;20.90;;;16.90;;
16401;SDS011;8310;44.626;11.176;2022-11-02T00:50:19;23.75;;;17.98;;
16401;SDS011;8310;44.626;11.176;2022-11-02T00:52:49;24.33;;;18.25;;
16401;SDS011;8310;44.626;11.176;2022-11-02T00:55:16;23.50;;;17.80;;
16401;SDS011;8310;44.626;11.176;2022-11-02T00:57:44;24.55;;;19.23;;
16401;SDS011;8310;44.626;11.176;2022-11-02T01:00:12;21.70;;;18.08;;
16401;SDS011;8310;44.626;11.176;2022-11-02T01:02:41;23.75;;;19.45;;
16401;SDS011;8310;44.626;11.176;2022-11-02T01:05:09;23.70;;;20.52;;
16401;SDS011;8310;44.626;11.176;2022-11-02T01:07:37;30.00;;;20.90;;
16401;SDS011;8310;44.626;11.176;2022-11-02T01:10:08;25.33;;;20.27;;
16401;SDS011;8310;44.626;11.176;2022-11-02T01:12:37;23.95;;;20.80;;
16401;SDS011;8310;44.626;11.176;2022-11-02T01:15:05;30.90;;;20.77;;
16401;SDS011;8310;44.626;11.176;2022-11-02T01:17:34;27.30;;;21.75;;
16401;SDS011;8310;44.626;11.176;2022-11-02T01:20:02;28.90;;;21.08;;
16401;SDS011;8310;44.626;11.176;2022-11-02T01:22:30;29.05;;;21.25;;
16401;SDS011;8310;44.626;11.176;2022-11-02T01:24:58;26.92;;;20.90;;
16401;SDS011;8310;44.626;11.176;2022-11-02T01:27:27;27.60;;;21.88;;
16401;SDS011;8310;44.626;11.176;2022-11-02T01:29:55;28.40;;;22.48;;
16401;SDS011;8310;44.626;11.176;2022-11-02T01:32:23;26.98;;;20.75;;
16401;SDS011;8310;44.626;11.176;2022-11-02T01:34:50;29.58;;;22.55;;
16401;SDS011;8310;44.626;11.176;2022-11-02T01:37:18;28.30;;;20.65;;
16401;SDS011;8310;44.626;11.176;2022-11-02T01:39:46;29.58;;;22.10;;
16401;SDS011;8310;44.626;11.176;2022-11-02T01:42:17;26.70;;;21.98;;
16401;SDS011;8310;44.626;11.176;2022-11-02T01:44:47;26.08;;;19.50;;
16401;SDS011;8310;44.626;11.176;2022-11-02T01:47:17;26.25;;;20.48;;
16401;SDS011;8310;44.626;11.176;2022-11-02T01:49:48;24.95;;;20.33;;
16401;SDS011;8310;44.626;11.176;2022-11-02T01:52:20;24.85;;;20.80;;
16401;SDS011;8310;44.626;11.176;2022-11-02T01:54:52;28.40;;;21.05;;
16401;SDS011;8310;44.626;11.176;2022-11-02T01:57:24;25.15;;;20.10;;
16401;SDS011;8310;44.626;11.176;2022-11-02T01:59:56;28.55;;;22.52;;
16401;SDS011;8310;44.626;11.176;2022-11-02T02:02:30;25.10;;;20.23;;
16401;SDS011;8310;44.626;11.176;2022-11-02T02:05:03;26.88;;;20.67;;
16401;SDS011;8310;44.626;11.176;2022-11-02T02:07:32;27.92;;;20.33;;
16401;SDS011;8310;44.626;11.176;2022-11-02T02:10:02;24.48;;;21.10;;
16401;SDS011;8310;44.626;11.176;2022-11-02T02:12:31;26.35;;;21.05;;
16401;SDS011;8310;44.626;11.176;2022-11-02T02:15:01;25.50;;;19.88;;
16401;SDS011;8310;44.626;11.176;2022-11-02T02:17:31;28.02;;;21.92;;
16401;SDS011;8310;44.626;11.176;2022-11-02T02:20:10;25.50;;;20.55;;
16401;SDS011;8310;44.626;11.176;2022-11-02T02:22:57;25.45;;;20.58;;
16401;SDS011;8310;44.626;11.176;2022-11-02T02:28:51;28.48;;;21.52;;
16401;SDS011;8310;44.626;11.176;2022-11-02T02:31:23;29.52;;;22.27;;
16401;SDS011;8310;44.626;11.176;2022-11-02T02:33:58;33.70;;;21.60;;
16401;SDS011;8310;44.626;11.176;2022-11-02T02:36:30;25.67;;;21.98;;
16401;SDS011;8310;44.626;11.176;2022-11-02T02:39:01;27.98;;;21.52;;
16401;SDS011;8310;44.626;11.176;2022-11-02T02:41:35;30.02;;;22.52;;
16401;SDS011;8310;44.626;11.176;2022-11-02T02:44:07;28.08;;;22.85;;
16401;SDS011;8310;44.626;11.176;2022-11-02T02:46:39;29.08;;;21.70;;
16401;SDS011;8310;44.626;11.176;2022-11-02T02:49:11;30.38;;;22.60;;
16401;SDS011;8310;44.626;11.176;2022-11-02T02:51:44;29.20;;;22.70;;
16401;SDS011;8310;44.626;11.176;2022-11-02T02:54:14;28.23;;;22.88;;
16401;SDS011;8310;44.626;11.176;2022-11-02T02:56:45;30.67;;;24.23;;
16401;SDS011;8310;44.626;11.176;2022-11-02T02:59:19;29.92;;;24.48;;
16401;SDS011;8310;44.626;11.176;2022-11-02T03:01:50;26.48;;;21.17;;
16401;SDS011;8310;44.626;11.176;2022-11-02T03:04:20;27.60;;;21.58;;
16401;SDS011;8310;44.626;11.176;2022-11-02T03:06:48;30.65;;;24.00;;
16401;SDS011;8310;44.626;11.176;2022-11-02T03:09:21;29.75;;;23.48;;
16401;SDS011;8310;44.626;11.176;2022-11-02T03:11:58;29.33;;;23.65;;
16401;SDS011;8310;44.626;11.176;2022-11-02T03:14:36;27.58;;;22.13;;
16401;SDS011;8310;44.626;11.176;2022-11-02T03:17:12;29.08;;;22.35;;
16401;SDS011;8310;44.626;11.176;2022-11-02T03:19:44;29.33;;;23.13;;
16401;SDS011;8310;44.626;11.176;2022-11-02T03:22:19;31.42;;;22.40;;
16401;SDS011;8310;44.626;11.176;2022-11-02T03:24:52;30.02;;;22.48;;
16401;SDS011;8310;44.626;11.176;2022-11-02T03:27:28;30.27;;;24.85;;
16401;SDS011;8310;44.626;11.176;2022-11-02T03:30:05;27.13;;;22.65;;
16401;SDS011;8310;44.626;11.176;2022-11-02T03:32:35;29.33;;;22.35;;
16401;SDS011;8310;44.626;11.176;2022-11-02T03:35:13;29.75;;;23.10;;
16401;SDS011;8310;44.626;11.176;2022-11-02T03:37:45;28.83;;;22.63;;
16401;SDS011;8310;44.626;11.176;2022-11-02T03:40:19;30.92;;;22.05;;
16401;SDS011;8310;44.626;11.176;2022-11-02T03:42:50;27.08;;;22.55;;
16401;SDS011;8310;44.626;11.176;2022-11-02T03:45:21;29.23;;;23.25;;
16401;SDS011;8310;44.626;11.176;2022-11-02T03:47:53;28.70;;;21.67;;
16401;SDS011;8310;44.626;11.176;2022-11-02T03:50:24;25.98;;;21.88;;
16401;SDS011;8310;44.626;11.176;2022-11-02T03:52:54;27.30;;;21.80;;
16401;SDS011;8310;44.626;11.176;2022-11-02T03:55:25;29.48;;;21.65;;
16401;SDS011;8310;44.626;11.176;2022-11-02T03:57:56;28.15;;;20.60;;
16401;SDS011;8310;44.626;11.176;2022-11-02T04:00:27;26.15;;;21.25;;
16401;SDS011;8310;44.626;11.176;2022-11-02T04:02:59;26.08;;;20.55;;
16401;SDS011;8310;44.626;11.176;2022-11-02T04:05:28;27.27;;;21.15;;
16401;SDS011;8310;44.626;11.176;2022-11-02T04:07:57;26.55;;;22.15;;
16401;SDS011;8310;44.626;11.176;2022-11-02T04:10:42;26.70;;;20.10;;
16401;SDS011;8310;44.626;11.176;2022-11-02T04:13:23;24.02;;;20.55;;
16401;SDS011;8310;44.626;11.176;2022-11-02T04:16:09;24.10;;;19.60;;
16401;SDS011;8310;44.626;11.176;2022-11-02T04:18:37;22.98;;;18.75;;
16401;SDS011;8310;44.626;11.176;2022-11-02T04:21:22;22.77;;;17.02;;
16401;SDS011;8310;44.626;11.176;2022-11-02T04:23:50;19.67;;;17.10;;
16401;SDS011;8310;44.626;11.176;2022-11-02T04:26:36;22.17;;;16.67;;
16401;SDS011;8310;44.626;11.176;2022-11-02T04:29:04;20.42;;;16.33;;
16401;SDS011;8310;44.626;11.176;2022-11-02T04:31:33;21.02;;;15.95;;
16401;SDS011;8310;44.626;11.176;2022-11-02T04:34:00;18.08;;;14.88;;
16401;SDS011;8310;44.626;11.176;2022-11-02T04:36:28;18.80;;;14.63;;
16401;SDS011;8310;44.626;11.176;2022-11-02T04:38:56;21.15;;;15.88;;
16401;SDS011;8310;44.626;11.176;2022-11-02T04:41:22;20.60;;;14.65;;
16401;SDS011;8310;44.626;11.176;2022-11-02T04:44:09;16.88;;;14.27;;
16401;SDS011;8310;44.626;11.176;2022-11-02T04:46:39;16.42;;;13.88;;
16401;SDS011;8310;44.626;11.176;2022-11-02T04:49:09;18.58;;;14.15;;
16401;SDS011;8310;44.626;11.176;2022-11-02T04:54:11;16.83;;;14.57;;
16401;SDS011;8310;44.626;11.176;2022-11-02T04:56:39;18.63;;;14.10;;
16401;SDS011;8310;44.626;11.176;2022-11-02T04:59:07;19.00;;;14.77;;
16401;SDS011;8310;44.626;11.176;2022-11-02T05:01:35;17.33;;;14.85;;
16401;SDS011;8310;44.626;11.176;2022-11-02T05:04:04;18.75;;;14.65;;
16401;SDS011;8310;44.626;11.176;2022-11-02T05:06:32;19.88;;;14.52;;
16401;SDS011;8310;44.626;11.176;2022-11-02T05:09:00;18.27;;;14.15;;
16401;SDS011;8310;44.626;11.176;2022-11-02T05:11:27;19.73;;;14.75;;
16401;SDS011;8310;44.626;11.176;2022-11-02T05:13:54;18.92;;;16.08;;
16401;SDS011;8310;44.626;11.176;2022-11-02T05:16:21;20.48;;;15.80;;
16401;SDS011;8310;44.626;11.176;2022-11-02T05:18:49;17.92;;;14.63;;
16401;SDS011;8310;44.626;11.176;2022-11-02T05:21:19;20.55;;;14.95;;
16401;SDS011;8310;44.626;11.176;2022-11-02T05:23:46;16.65;;;14.35;;
16401;SDS011;8310;44.626;11.176;2022-11-02T05:26:14;17.40;;;13.88;;
16401;SDS011;8310;44.626;11.176;2022-11-02T05:28:41;20.95;;;14.02;;
16401;SDS011;8310;44.626;11.176;2022-11-02T05:31:09;19.48;;;15.02;;
16401;SDS011;8310;44.626;11.176;2022-11-02T05:33:37;19.17;;;14.80;;
16401;SDS011;8310;44.626;11.176;2022-11-02T05:36:06;20.92;;;15.25;;
16401;SDS011;8310;44.626;11.176;2022-11-02T05:38:36;21.02;;;16.60;;
16401;SDS011;8310;44.626;11.176;2022-11-02T05:41:03;17.92;;;14.10;;
16401;SDS011;8310;44.626;11.176;2022-11-02T05:43:31;20.67;;;15.38;;
16401;SDS011;8310;44.626;11.176;2022-11-02T05:45:59;22.00;;;15.75;;
16401;SDS011;8310;44.626;11.176;2022-11-02T05:48:29;21.70;;;14.85;;
16401;SDS011;8310;44.626;11.176;2022-11-02T05:50:59;22.65;;;15.20;;
16401;SDS011;8310;44.626;11.176;2022-11-02T05:53:28;17.33;;;14.48;;
16401;SDS011;8310;44.626;11.176;2022-11-02T05:56:00;16.55;;;14.38;;
16401;SDS011;8310;44.626;11.176;2022-11-02T05:58:28;21.48;;;15.35;;
16401;SDS011;8310;44.626;11.176;2022-11-02T06:00:57;20.60;;;15.52;;
16401;SDS011;8310;44.626;11.176;2022-11-02T06:03:26;23.13;;;15.98;;
16401;SDS011;8310;44.626;11.176;2022-11-02T06:05:57;19.73;;;14.63;;
16401;SDS011;8310;44.626;11.176;2022-11-02T06:08:25;22.55;;;15.57;;
16401;SDS011;8310;44.626;11.176;2022-11-02T06:10:53;22.95;;;15.95;;
16401;SDS011;8310;44.626;11.176;2022-11-02T06:13:22;21.00;;;15.77;;
16401;SDS011;8310;44.626;11.176;2022-11-02T06:15:50;22.92;;;15.68;;
16401;SDS011;8310;44.626;11.176;2022-11-02T06:18:17;18.63;;;15.40;;
16401;SDS011;8310;44.626;11.176;2022-11-02T06:20:45;22.05;;;15.73;;
16401;SDS011;8310;44.626;11.176;2022-11-02T06:23:15;21.27;;;15.13;;
16401;SDS011;8310;44.626;11.176;2022-11-02T06:25:43;19.77;;;15.25;;
16401;SDS011;8310;44.626;11.176;2022-11-02T06:28:16;20.63;;;14.90;;
16401;SDS011;8310;44.626;11.176;2022-11-02T06:30:46;17.33;;;13.82;;
16401;SDS011;8310;44.626;11.176;2022-11-02T06:33:13;15.18;;;12.70;;
16401;SDS011;8310;44.626;11.176;2022-11-02T06:35:43;17.75;;;13.85;;
16401;SDS011;8310;44.626;11.176;2022-11-02T06:38:12;18.15;;;14.70;;
16401;SDS011;8310;44.626;11.176;2022-11-02T06:40:40;18.13;;;14.23;;
16401;SDS011;8310;44.626;11.176;2022-11-02T06:43:08;17.33;;;14.23;;
16401;SDS011;8310;44.626;11.176;2022-11-02T06:45:37;18.48;;;14.13;;
16401;SDS011;8310;44.626;11.176;2022-11-02T06:48:06;18.38;;;14.07;;
16401;SDS011;8310;44.626;11.176;2022-11-02T06:50:34;18.40;;;14.18;;
16401;SDS011;8310;44.626;11.176;2022-11-02T06:53:02;19.10;;;13.48;;
16401;SDS011;8310;44.626;11.176;2022-11-02T06:55:30;19.77;;;13.75;;
16401;SDS011;8310;44.626;11.176;2022-11-02T06:57:57;15.05;;;12.80;;
16401;SDS011;8310;44.626;11.176;2022-11-02T07:00:25;15.90;;;12.25;;
16401;SDS011;8310;44.626;11.176;2022-11-02T07:03:00;14.25;;;11.75;;
16401;SDS011;8310;44.626;11.176;2022-11-02T07:05:30;15.13;;;12.32;;
16401;SDS011;8310;44.626;11.176;2022-11-02T07:07:58;17.45;;;12.75;;
16401;SDS011;8310;44.626;11.176;2022-11-02T07:10:26;17.63;;;11.82;;
16401;SDS011;8310;44.626;11.176;2022-11-02T07:12:55;20.48;;;13.88;;
16401;SDS011;8310;44.626;11.176;2022-11-02T07:15:24;14.63;;;13.07;;
16401;SDS011;8310;44.626;11.176;2022-11-02T07:17:52;15.43;;;12.25;;
16401;SDS011;8310;44.626;11.176;2022-11-02T07:20:20;16.40;;;12.23;;
16401;SDS011;8310;44.626;11.176;2022-11-02T07:22:52;14.80;;;12.70;;
16401;SDS011;8310;44.626;11.176;2022-11-02T07:25:20;18.95;;;12.63;;
16401;SDS011;8310;44.626;11.176;2022-11-02T07:27:48;16.40;;;12.80;;
16401;SDS011;8310;44.626;11.176;2022-11-02T07:30:16;17.70;;;13.82;;
16401;SDS011;8310;44.626;11.176;2022-11-02T07:32:44;16.67;;;12.18;;
16401;SDS011;8310;44.626;11.176;2022-11-02T07:35:13;15.32;;;11.82;;
16401;SDS011;8310;44.626;11.176;2022-11-02T07:37:41;19.17;;;12.98;;
16401;SDS011;8310;44.626;11.176;2022-11-02T07:40:11;18.38;;;13.68;;
16401;SDS011;8310;44.626;11.176;2022-11-02T07:42:42;19.60;;;13.98;;
16401;SDS011;8310;44.626;11.176;2022-11-02T07:45:11;19.33;;;14.32;;
16401;SDS011;8310;44.626;11.176;2022-11-02T07:47:42;21.40;;;14.18;;
16401;SDS011;8310;44.626;11.176;2022-11-02T07:50:10;19.60;;;15.07;;
16401;SDS011;8310;44.626;11.176;2022-11-02T07:52:45;21.27;;;16.65;;
16401;SDS011;8310;44.626;11.176;2022-11-02T07:55:15;22.40;;;16.52;;
16401;SDS011;8310;44.626;11.176;2022-11-02T07:57:51;23.88;;;17.63;;
16401;SDS011;8310;44.626;11.176;2022-11-02T08:00:19;26.45;;;17.05;;
16401;SDS011;8310;44.626;11.176;2022-11-02T08:02:47;33.08;;;19.17;;
16401;SDS011;8310;44.626;11.176;2022-11-02T08:05:15;31.65;;;21.65;;
16401;SDS011;8310;44.626;11.176;2022-11-02T08:07:42;31.60;;;22.17;;
16401;SDS011;8310;44.626;11.176;2022-11-02T08:10:09;43.70;;;24.70;;
16401;SDS011;8310;44.626;11.176;2022-11-02T08:12:38;37.67;;;24.55;;
16401;SDS011;8310;44.626;11.176;2022-11-02T08:15:07;30.38;;;23.65;;
16401;SDS011;8310;44.626;11.176;2022-11-02T08:17:35;33.08;;;24.95;;
16401;SDS011;8310;44.626;11.176;2022-11-02T08:20:03;35.90;;;25.23;;
16401;SDS011;8310;44.626;11.176;2022-11-02T08:22:35;35.92;;;26.23;;
16401;SDS011;8310;44.626;11.176;2022-11-02T08:25:03;33.25;;;24.48;;
16401;SDS011;8310;44.626;11.176;2022-11-02T08:27:32;34.72;;;24.85;;
16401;SDS011;8310;44.626;11.176;2022-11-02T08:30:01;31.27;;;23.50;;
16401;SDS011;8310;44.626;11.176;2022-11-02T08:32:28;35.20;;;24.83;;
16401;SDS011;8310;44.626;11.176;2022-11-02T08:34:55;34.53;;;24.45;;
16401;SDS011;8310;44.626;11.176;2022-11-02T08:37:22;35.42;;;26.83;;
16401;SDS011;8310;44.626;11.176;2022-11-02T08:39:50;29.70;;;25.25;;
16401;SDS011;8310;44.626;11.176;2022-11-02T08:42:17;34.10;;;25.40;;
16401;SDS011;8310;44.626;11.176;2022-11-02T08:44:45;32.72;;;25.55;;
16401;SDS011;8310;44.626;11.176;2022-11-02T08:47:14;31.42;;;25.38;;
16401;SDS011;8310;44.626;11.176;2022-11-02T08:49:43;32.90;;;26.20;;
16401;SDS011;8310;44.626;11.176;2022-11-02T08:52:11;32.88;;;25.73;;
16401;SDS011;8310;44.626;11.176;2022-11-02T08:54:39;32.92;;;24.08;;
16401;SDS011;8310;44.626;11.176;2022-11-02T08:57:06;34.10;;;23.83;;
16401;SDS011;8310;44.626;11.176;2022-11-02T08:59:33;35.70;;;24.85;;
16401;SDS011;8310;44.626;11.176;2022-11-02T09:02:01;34.38;;;25.42;;
16401;SDS011;8310;44.626;11.176;2022-11-02T09:04:30;32.80;;;24.65;;
16401;SDS011;8310;44.626;11.176;2022-11-02T09:06:57;34.35;;;25.58;;
16401;SDS011;8310;44.626;11.176;2022-11-02T09:09:25;32.13;;;25.90;;
16401;SDS011;8310;44.626;11.176;2022-11-02T09:11:53;36.25;;;27.05;;
16401;SDS011;8310;44.626;11.176;2022-11-02T09:14:20;32.80;;;26.33;;
16401;SDS011;8310;44.626;11.176;2022-11-02T09:16:47;32.55;;;24.45;;
16401;SDS011;8310;44.626;11.176;2022-11-02T09:19:15;33.22;;;24.85;;
16401;SDS011;8310;44.626;11.176;2022-11-02T09:21:44;29.83;;;23.38;;
16401;SDS011;8310;44.626;11.176;2022-11-02T09:24:12;32.97;;;24.77;;
16401;SDS011;8310;44.626;11.176;2022-11-02T09:26:39;43.40;;;23.25;;
16401;SDS011;8310;44.626;11.176;2022-11-02T09:29:07;39.63;;;24.90;;
16401;SDS011;8310;44.626;11.176;2022-11-02T09:31:34;29.92;;;23.73;;
16401;SDS011;8310;44.626;11.176;2022-11-02T09:34:01;28.75;;;23.15;;
16401;SDS011;8310;44.626;11.176;2022-11-02T09:36:30;31.52;;;23.00;;
16401;SDS011;8310;44.626;11.176;2022-11-02T09:39:01;29.00;;;21.90;;
16401;SDS011;8310;44.626;11.176;2022-11-02T09:41:29;25.88;;;21.77;;
16401;SDS011;8310;44.626;11.176;2022-11-02T09:44:03;27.17;;;20.52;;
16401;SDS011;8310;44.626;11.176;2022-11-02T09:46:37;30.30;;;23.30;;
16401;SDS011;8310;44.626;11.176;2022-11-02T09:49:09;28.90;;;22.98;;
16401;SDS011;8310;44.626;11.176;2022-11-02T09:51:41;29.10;;;22.35;;
16401;SDS011;8310;44.626;11.176;2022-11-02T09:54:14;23.80;;;20.38;;
16401;SDS011;8310;44.626;11.176;2022-11-02T09:56:45;24.25;;;19.92;;
16401;SDS011;8310;44.626;11.176;2022-11-02T09:59:16;23.00;;;17.98;;
16401;SDS011;8310;44.626;11.176;2022-11-02T10:01:50;25.80;;;18.50;;
16401;SDS011;8310;44.626;11.176;2022-11-02T10:04:29;23.90;;;19.08;;
16401;SDS011;8310;44.626;11.176;2022-11-02T10:07:08;24.95;;;19.60;;
16401;SDS011;8310;44.626;11.176;2022-11-02T10:09:47;25.92;;;19.00;;
16401;SDS011;8310;44.626;11.176;2022-11-02T10:12:20;23.77;;;17.75;;
16401;SDS011;8310;44.626;11.176;2022-11-02T10:14:56;23.65;;;18.05;;
16401;SDS011;8310;44.626;11.176;2022-11-02T10:17:28;22.20;;;18.83;;
16401;SDS011;8310;44.626;11.176;2022-11-02T10:19:59;21.63;;;17.48;;
16401;SDS011;8310;44.626;11.176;2022-11-02T10:22:32;21.15;;;18.13;;
16401;SDS011;8310;44.626;11.176;2022-11-02T10:25:04;24.77;;;18.77;;
16401;SDS011;8310;44.626;11.176;2022-11-02T10:27:35;28.92;;;19.95;;
16401;SDS011;8310;44.626;11.176;2022-11-02T10:30:05;23.83;;;18.27;;
16401;SDS011;8310;44.626;11.176;2022-11-02T10:32:37;23.02;;;18.13;;
16401;SDS011;8310;44.626;11.176;2022-11-02T10:35:10;24.67;;;17.48;;
16401;SDS011;8310;44.626;11.176;2022-11-02T10:37:49;21.98;;;18.10;;
16401;SDS011;8310;44.626;11.176;2022-11-02T10:40:44;22.95;;;18.20;;
16401;SDS011;8310;44.626;11.176;2022-11-02T10:43:24;21.58;;;18.30;;
16401;SDS011;8310;44.626;11.176;2022-11-02T10:46:01;24.77;;;18.92;;
16401;SDS011;8310;44.626;11.176;2022-11-02T10:48:45;23.85;;;17.83;;
16401;SDS011;8310;44.626;11.176;2022-11-02T10:51:20;24.38;;;19.02;;
16401;SDS011;8310;44.626;11.176;2022-11-02T10:53:49;23.23;;;19.15;;
16401;SDS011;8310;44.626;11.176;2022-11-02T10:56:19;24.10;;;19.77;;
16401;SDS011;8310;44.626;11.176;2022-11-02T10:58:50;24.88;;;20.95;;
16401;SDS011;8310;44.626;11.176;2022-11-02T11:01:24;26.13;;;22.17;;
16401;SDS011;8310;44.626;11.176;2022-11-02T11:03:54;24.77;;;21.85;;
16401;SDS011;8310;44.626;11.176;2022-11-02T11:06:24;24.38;;;20.73;;
16401;SDS011;8310;44.626;11.176;2022-11-02T11:08:57;24.98;;;20.20;;
16401;SDS011;8310;44.626;11.176;2022-11-02T11:11:29;23.75;;;19.38;;
16401;SDS011;8310;44.626;11.176;2022-11-02T11:13:59;21.38;;;18.48;;
16401;SDS011;8310;44.626;11.176;2022-11-02T11:16:38;22.40;;;18.85;;
16401;SDS011;8310;44.626;11.176;2022-11-02T11:19:17;23.25;;;18.63;;
16401;SDS011;8310;44.626;11.176;2022-11-02T11:21:48;22.30;;;16.83;;
16401;SDS011;8310;44.626;11.176;2022-11-02T11:24:19;23.33;;;17.83;;
16401;SDS011;8310;44.626;11.176;2022-11-02T11:29:46;20.15;;;16.70;;
16401;SDS011;8310;44.626;11.176;2022-11-02T11:32:19;24.17;;;17.80;;
16401;SDS011;8310;44.626;11.176;2022-11-02T11:34:52;22.58;;;17.63;;
16401;SDS011;8310;44.626;11.176;2022-11-02T11:37:23;23.70;;;17.95;;
16401;SDS011;8310;44.626;11.176;2022-11-02T11:39:52;21.33;;;18.35;;
16401;SDS011;8310;44.626;11.176;2022-11-02T11:42:25;21.63;;;18.58;;
16401;SDS011;8310;44.626;11.176;2022-11-02T11:44:56;22.40;;;18.67;;
16401;SDS011;8310;44.626;11.176;2022-11-02T11:47:27;22.10;;;18.52;;
16401;SDS011;8310;44.626;11.176;2022-11-02T11:49:59;24.38;;;19.60;;
16401;SDS011;8310;44.626;11.176;2022-11-02T11:52:29;26.58;;;21.10;;
16401;SDS011;8310;44.626;11.176;2022-11-02T11:54:59;24.60;;;20.33;;
16401;SDS011;8310;44.626;11.176;2022-11-02T11:57:29;25.45;;;20.50;;
16401;SDS011;8310;44.626;11.176;2022-11-02T11:59:58;26.15;;;20.33;;
16401;SDS011;8310;44.626;11.176;2022-11-02T12:02:29;25.73;;;21.83;;
16401;SDS011;8310;44.626;11.176;2022-11-02T12:04:59;27.30;;;22.95;;
16401;SDS011;8310;44.626;11.176;2022-11-02T12:07:38;26.42;;;21.58;;
16401;SDS011;8310;44.626;11.176;2022-11-02T12:10:27;27.83;;;21.63;;
16401;SDS011;8310;44.626;11.176;2022-11-02T12:13:08;25.05;;;20.70;;
16401;SDS011;8310;44.626;11.176;2022-11-02T12:15:54;27.52;;;20.85;;
16401;SDS011;8310;44.626;11.176;2022-11-02T12:18:37;30.15;;;22.42;;
16401;SDS011;8310;44.626;11.176;2022-11-02T12:21:21;29.35;;;22.33;;
16401;SDS011;8310;44.626;11.176;2022-11-02T12:24:14;29.52;;;21.52;;
16401;SDS011;8310;44.626;11.176;2022-11-02T12:26:59;29.85;;;23.60;;
16401;SDS011;8310;44.626;11.176;2022-11-02T12:29:40;26.20;;;22.35;;
16401;SDS011;8310;44.626;11.176;2022-11-02T12:32:27;29.77;;;23.63;;
16401;SDS011;8310;44.626;11.176;2022-11-02T12:35:20;31.08;;;23.13;;
16401;SDS011;8310;44.626;11.176;2022-11-02T12:38:08;29.98;;;23.02;;
16401;SDS011;8310;44.626;11.176;2022-11-02T12:40:54;29.10;;;22.10;;
16401;SDS011;8310;44.626;11.176;2022-11-02T12:43:32;27.00;;;22.00;;
16401;SDS011;8310;44.626;11.176;2022-11-02T12:46:12;29.67;;;22.35;;
16401;SDS011;8310;44.626;11.176;2022-11-02T12:48:48;30.50;;;23.25;;
16401;SDS011;8310;44.626;11.176;2022-11-02T12:51:28;32.40;;;23.92;;
16401;SDS011;8310;44.626;11.176;2022-11-02T12:54:02;26.83;;;21.45;;
16401;SDS011;8310;44.626;11.176;2022-11-02T12:56:39;28.23;;;22.27;;
16401;SDS011;8310;44.626;11.176;2022-11-02T12:59:13;28.48;;;24.10;;
16401;SDS011;8310;44.626;11.176;2022-11-02T13:01:48;26.38;;;22.40;;
16401;SDS011;8310;44.626;11.176;2022-11-02T13:04:21;30.98;;;25.00;;
16401;SDS011;8310;44.626;11.176;2022-11-02T13:06:55;25.58;;;21.60;;
16401;SDS011;8310;44.626;11.176;2022-11-02T13:09:29;28.35;;;21.88;;
16401;SDS011;8310;44.626;11.176;2022-11-02T13:12:01;30.58;;;22.83;;
16401;SDS011;8310;44.626;11.176;2022-11-02T13:14:33;26.77;;;21.30;;
16401;SDS011;8310;44.626;11.176;2022-11-02T13:17:08;26.70;;;21.90;;
16401;SDS011;8310;44.626;11.176;2022-11-02T13:19:41;30.73;;;22.33;;
16401;SDS011;8310;44.626;11.176;2022-11-02T13:22:12;28.38;;;21.70;;
16401;SDS011;8310;44.626;11.176;2022-11-02T13:24:42;25.45;;;20.48;;
16401;SDS011;8310;44.626;11.176;2022-11-02T13:27:18;26.50;;;21.70;;
16401;SDS011;8310;44.626;11.176;2022-11-02T13:29:57;26.45;;;21.90;;
16401;SDS011;8310;44.626;11.176;2022-11-02T13:32:30;29.60;;;20.40;;
16401;SDS011;8310;44.626;11.176;2022-11-02T13:35:03;25.45;;;21.35;;
16401;SDS011;8310;44.626;11.176;2022-11-02T13:37:39;27.13;;;20.30;;
16401;SDS011;8310;44.626;11.176;2022-11-02T13:40:12;23.65;;;19.33;;
16401;SDS011;8310;44.626;11.176;2022-11-02T13:45:46;24.70;;;19.30;;
16401;SDS011;8310;44.626;11.176;2022-11-02T13:48:36;23.67;;;18.83;;
16401;SDS011;8310;44.626;11.176;2022-11-02T13:51:07;25.85;;;19.75;;
16401;SDS011;8310;44.626;11.176;2022-11-02T13:53:46;23.95;;;18.80;;
16401;SDS011;8310;44.626;11.176;2022-11-02T13:56:22;26.35;;;18.85;;
16401;SDS011;8310;44.626;11.176;2022-11-02T13:58:53;24.55;;;17.67;;
16401;SDS011;8310;44.626;11.176;2022-11-02T14:01:24;25.80;;;18.52;;
16401;SDS011;8310;44.626;11.176;2022-11-02T14:03:55;25.42;;;18.42;;
16401;SDS011;8310;44.626;11.176;2022-11-02T14:06:28;24.40;;;18.88;;
16401;SDS011;8310;44.626;11.176;2022-11-02T14:08:58;22.40;;;16.33;;
16401;SDS011;8310;44.626;11.176;2022-11-02T14:11:32;21.63;;;16.10;;
16401;SDS011;8310;44.626;11.176;2022-11-02T14:14:15;27.40;;;18.92;;
16401;SDS011;8310;44.626;11.176;2022-11-02T14:19:51;22.38;;;16.45;;
16401;SDS011;8310;44.626;11.176;2022-11-02T14:22:20;21.70;;;16.55;;
16401;SDS011;8310;44.626;11.176;2022-11-02T14:25:06;19.98;;;17.08;;
16401;SDS011;8310;44.626;11.176;2022-11-02T14:27:40;22.23;;;16.25;;
16401;SDS011;8310;44.626;11.176;2022-11-02T14:36:19;23.27;;;16.63;;
16401;SDS011;8310;44.626;11.176;2022-11-02T14:38:59;25.92;;;17.38;;
16401;SDS011;8310;44.626;11.176;2022-11-02T14:41:41;22.67;;;17.13;;
16401;SDS011;8310;44.626;11.176;2022-11-02T14:44:28;18.17;;;15.30;;
16401;SDS011;8310;44.626;11.176;2022-11-02T14:47:19;19.50;;;14.65;;
16401;SDS011;8310;44.626;11.176;2022-11-02T14:49:54;21.88;;;15.80;;
16401;SDS011;8310;44.626;11.176;2022-11-02T14:52:25;18.23;;;15.15;;
16401;SDS011;8310;44.626;11.176;2022-11-02T14:54:58;20.67;;;16.42;;
16401;SDS011;8310;44.626;11.176;2022-11-02T14:57:28;22.08;;;16.80;;
16401;SDS011;8310;44.626;11.176;2022-11-02T15:00:01;23.45;;;18.83;;
16401;SDS011;8310;44.626;11.176;2022-11-02T15:02:32;25.35;;;18.55;;
16401;SDS011;8310;44.626;11.176;2022-11-02T15:05:02;25.15;;;18.58;;
16401;SDS011;8310;44.626;11.176;2022-11-02T15:07:35;25.63;;;17.38;;